LGKC

Kithira Airport

Kithira Island, Greece
TAF LGKC 140200Z 1403/1412 VRB05KT 9999 SCT008 SCT015 PROB30 TEMPO 1409/1412 5000 RA BKN007 FEW015TCU BKN020 BECMG 1407/1409 20014KT
Issued Valid From Valid To
Dec-14 @ 02:00 UTC
(2 hours ago)
Dec-14 @ 03:00 UTC
(an hour ago)
Dec-14 @ 12:00 UTC
(in 8 hours)
Dec-14 @ 03:00 to Dec-14 @ 07:00
TAF LGKC 140200Z 1403/1412 VRB05KT 9999 SCT008 SCT015
Wind Visibility Clouds
Variable at 5 knots 10,000+ meters
  • Scattered at 800' AGL
  • Scattered at 1,500' AGL
Becoming Dec-14 @ 07:00 to Dec-14 @ 12:00
BECMG 1407/1409 20014KT
Wind Visibility Clouds
200° at 14 knots 10,000+ meters
  • Scattered at 800' AGL
  • Scattered at 1,500' AGL
Temporary  (Probability 30%) Dec-14 @ 09:00 to Dec-14 @ 12:00
PROB30 TEMPO 1409/1412 5000 RA BKN007 FEW015TCU BKN020
Visibility Clouds Conditions
5,005 meters
  • Broken at 700' AGL
  • Few at 1,500' AGL
  • Broken at 2,000' AGL
  • Rain
TAF LGKC 140200Z 1403/1412 VRB05KT 9999 SCT008 SCT015 PROB30 TEMPO 1409/1412 5000 RA BKN007 FEW015TCU BKN020 BECMG 1407/1409 20014KT
Issued Dec-14 @ 02:00 UTC
(2 hours ago)
Valid From Dec-14 @ 03:00 UTC
(an hour ago)
Valid To Dec-14 @ 12:00 UTC
(in 8 hours)
Dec-14 @ 03:00 - Dec-14 @ 07:00
Wind Visibility
Variable at 5 knots 10,000+ meters
Clouds
  • Scattered at 800' AGL
  • Scattered at 1,500' AGL
Becoming Dec-14 @ 07:00 - Dec-14 @ 12:00
Wind Visibility
200° at 14 knots 10,000+ meters
Clouds
  • Scattered at 800' AGL
  • Scattered at 1,500' AGL
Probability 30% Temporary Dec-14 @ 09:00 - Dec-14 @ 12:00
Clouds
  • Broken at 700' AGL
  • Few at 1,500' AGL
  • Broken at 2,000' AGL
Conditions
  • Rain